createdAt,value
2022-12-11T00:00:09.245Z,74.30
2022-12-11T00:05:30.156Z,74.29
2022-12-11T00:10:51.256Z,74.41
2022-12-11T00:16:12.538Z,74.63
2022-12-11T00:21:34.015Z,74.45
2022-12-11T00:26:54.383Z,74.67
2022-12-11T00:32:15.138Z,74.57
2022-12-11T00:37:35.945Z,74.55
2022-12-11T00:42:56.799Z,74.59
2022-12-11T00:48:18.651Z,74.65
2022-12-11T00:53:39.377Z,74.79
2022-12-11T00:59:00.159Z,74.81
2022-12-11T01:04:20.728Z,74.93
2022-12-11T01:10:00.281Z,74.91
2022-12-11T01:15:23.065Z,74.91
2022-12-11T01:20:43.688Z,74.70
2022-12-11T01:26:13.679Z,74.66
2022-12-11T01:31:34.575Z,74.88
2022-12-11T01:36:55.287Z,74.71
2022-12-11T01:42:18.917Z,75.14
2022-12-11T01:47:39.431Z,75.07
2022-12-11T01:53:00.046Z,75.00
2022-12-11T01:58:24.635Z,75.19
2022-12-11T02:03:45.033Z,74.99
2022-12-11T02:09:10.471Z,75.15
2022-12-11T02:14:41.401Z,75.17
2022-12-11T02:20:21.175Z,75.03
2022-12-11T02:25:48.023Z,75.13
2022-12-11T02:31:23.258Z,75.27
2022-12-11T02:36:49.233Z,75.02
2022-12-11T02:42:11.953Z,75.34
2022-12-11T02:47:33.922Z,74.85
2022-12-11T02:52:56.977Z,74.86
2022-12-11T02:58:28.218Z,74.98
2022-12-11T03:03:49.290Z,75.01
2022-12-11T03:09:10.362Z,74.77
2022-12-11T03:14:31.322Z,74.87
2022-12-11T03:20:12.002Z,75.06
2022-12-11T03:25:44.392Z,75.13
2022-12-11T03:31:13.328Z,74.99
2022-12-11T03:36:38.315Z,75.08
2022-12-11T03:42:02.893Z,75.11
2022-12-11T03:47:27.037Z,74.70
2022-12-11T03:52:49.017Z,75.10
2022-12-11T03:58:09.655Z,74.35
2022-12-11T04:03:31.044Z,74.32
2022-12-11T04:08:52.152Z,74.62
2022-12-11T04:14:33.210Z,74.60
2022-12-11T04:20:12.410Z,74.73
2022-12-11T04:25:32.991Z,74.85
2022-12-11T04:30:53.434Z,74.97
2022-12-11T04:36:14.993Z,74.95
2022-12-11T04:41:37.094Z,75.08
2022-12-11T04:46:57.921Z,75.18
2022-12-11T04:52:18.252Z,75.13
2022-12-11T04:57:39.434Z,75.07
2022-12-11T05:02:59.967Z,75.35
2022-12-11T05:08:21.588Z,75.08
2022-12-11T05:13:43.093Z,74.99
2022-12-11T05:19:03.970Z,75.25
2022-12-11T05:24:24.812Z,74.94
2022-12-11T05:29:45.623Z,75.13
2022-12-11T05:35:06.510Z,74.84
2022-12-11T05:40:27.550Z,74.98
2022-12-11T05:45:48.374Z,74.78
2022-12-11T05:51:11.065Z,74.87
2022-12-11T05:56:34.447Z,75.06
2022-12-11T06:01:55.332Z,74.94
2022-12-11T06:07:15.671Z,74.76
2022-12-11T06:12:36.543Z,74.76
2022-12-11T06:17:56.960Z,75.17
2022-12-11T06:23:17.523Z,75.19
2022-12-11T06:28:38.394Z,75.27
2022-12-11T06:33:59.921Z,75.03
2022-12-11T06:39:20.478Z,74.75
2022-12-11T06:44:41.310Z,74.90
2022-12-11T06:50:02.358Z,74.79
2022-12-11T06:55:23.417Z,75.02
2022-12-11T07:00:43.966Z,74.96
2022-12-11T07:06:05.407Z,74.98
2022-12-11T07:11:25.827Z,74.96
2022-12-11T07:16:46.478Z,75.21
2022-12-11T07:22:07.423Z,75.63
2022-12-11T07:27:29.119Z,75.94
2022-12-11T07:32:49.765Z,75.40
2022-12-11T07:38:10.402Z,75.33
2022-12-11T07:43:32.192Z,75.39
2022-12-11T07:48:53.155Z,75.49
2022-12-11T07:54:16.853Z,75.67
2022-12-11T07:59:37.613Z,75.90
2022-12-11T08:04:58.133Z,75.82
2022-12-11T08:10:19.746Z,75.78
2022-12-11T08:15:40.281Z,75.47
2022-12-11T08:21:09.450Z,75.38
2022-12-11T08:26:34.069Z,75.54
2022-12-11T08:31:55.370Z,75.28
2022-12-11T08:37:16.150Z,75.10
2022-12-11T08:42:36.870Z,74.97
2022-12-11T08:47:59.061Z,74.99
2022-12-11T08:53:19.977Z,74.26
2022-12-11T08:58:41.033Z,74.31
2022-12-11T09:04:02.195Z,74.56
2022-12-11T09:09:22.795Z,74.78
2022-12-11T09:14:43.537Z,74.39
2022-12-11T09:20:05.519Z,74.24
2022-12-11T09:25:26.314Z,74.01
2022-12-11T09:30:47.137Z,74.09
2022-12-11T09:36:08.918Z,74.06
2022-12-11T09:41:59.513Z,73.35
2022-12-11T09:47:27.714Z,73.27
2022-12-11T09:53:10.122Z,73.65
2022-12-11T09:58:52.238Z,73.52
2022-12-11T10:04:38.154Z,73.66
2022-12-11T10:10:09.119Z,73.69
2022-12-11T10:15:43.840Z,73.78
2022-12-11T10:21:04.745Z,73.82
2022-12-11T10:26:24.997Z,73.45
2022-12-11T10:31:57.816Z,73.82
2022-12-11T10:37:18.411Z,73.57
2022-12-11T10:42:45.434Z,73.59
2022-12-11T10:48:10.974Z,73.45
2022-12-11T10:53:33.392Z,73.67
2022-12-11T10:58:56.502Z,73.35
2022-12-11T11:04:37.573Z,73.28
2022-12-11T11:10:10.109Z,73.29
2022-12-11T11:15:31.298Z,72.89
2022-12-11T11:20:52.125Z,72.88
2022-12-11T11:26:13.548Z,72.78
2022-12-11T11:31:35.397Z,72.99
2022-12-11T11:36:58.663Z,73.29
2022-12-11T11:42:27.746Z,73.25
2022-12-11T11:47:58.755Z,73.33
2022-12-11T11:53:37.426Z,72.67
2022-12-11T11:59:18.900Z,70.74
2022-12-11T12:04:39.787Z,69.74
2022-12-11T12:10:16.269Z,69.95
2022-12-11T12:15:43.957Z,70.40
2022-12-11T12:21:24.492Z,71.21
2022-12-11T12:27:29.163Z,71.36
2022-12-11T12:33:15.017Z,72.09
2022-12-11T12:38:55.990Z,72.58
2022-12-11T12:44:23.633Z,72.65
2022-12-11T12:49:50.225Z,72.77
2022-12-11T12:55:14.102Z,73.11
2022-12-11T13:00:41.498Z,73.08
2022-12-11T13:06:13.532Z,73.29
2022-12-11T13:11:36.308Z,73.25
2022-12-11T13:17:21.470Z,72.88
2022-12-11T13:23:07.573Z,72.47
2022-12-11T13:28:32.970Z,72.71
2022-12-11T13:33:57.065Z,73.00
2022-12-11T13:39:22.469Z,72.89
2022-12-11T13:44:47.972Z,72.98
2022-12-11T13:50:23.939Z,73.00
2022-12-11T13:55:45.204Z,72.85
2022-12-11T14:01:11.179Z,72.91
2022-12-11T14:06:34.501Z,73.13
2022-12-11T14:11:57.619Z,72.93
2022-12-11T14:17:28.157Z,73.08
2022-12-11T14:22:48.844Z,72.95
2022-12-11T14:28:18.260Z,73.09
2022-12-11T14:33:46.954Z,73.17
2022-12-11T14:39:17.408Z,73.18
2022-12-11T14:44:51.902Z,73.09
2022-12-11T14:50:33.993Z,72.90
2022-12-11T14:55:58.128Z,72.69
2022-12-11T15:01:28.722Z,72.84
2022-12-11T15:06:51.845Z,72.92
2022-12-11T15:12:16.608Z,73.12
2022-12-11T15:17:37.462Z,73.26
2022-12-11T15:23:01.460Z,73.46
2022-12-11T15:28:34.734Z,73.43
2022-12-11T15:33:55.370Z,73.26
2022-12-11T15:39:16.170Z,73.51
2022-12-11T15:44:36.639Z,73.66
2022-12-11T15:50:07.326Z,73.29
2022-12-11T15:55:34.842Z,73.41
2022-12-11T16:00:55.909Z,73.43
2022-12-11T16:06:16.524Z,73.21
2022-12-11T16:11:37.158Z,73.74
2022-12-11T16:16:57.859Z,73.58
2022-12-11T16:22:20.958Z,73.28
2022-12-11T16:27:41.731Z,73.49
2022-12-11T16:33:10.196Z,73.49
2022-12-11T16:38:32.691Z,73.44
2022-12-11T16:43:54.058Z,73.51
2022-12-11T16:49:14.583Z,73.57
2022-12-11T16:54:35.501Z,73.78
2022-12-11T16:59:55.959Z,73.78
2022-12-11T17:05:16.807Z,73.82
2022-12-11T17:10:42.090Z,73.89
2022-12-11T17:16:16.564Z,73.84
2022-12-11T17:21:37.049Z,73.86
2022-12-11T17:26:57.574Z,74.01
2022-12-11T17:32:18.458Z,73.93
2022-12-11T17:37:38.950Z,74.13
2022-12-11T17:42:59.534Z,74.18
2022-12-11T17:48:24.296Z,74.15
2022-12-11T17:53:44.819Z,74.14
2022-12-11T17:59:05.339Z,73.98
2022-12-11T18:04:26.152Z,73.84
2022-12-11T18:09:46.791Z,74.04
2022-12-11T18:15:08.053Z,74.21
2022-12-11T18:20:31.420Z,74.09
2022-12-11T18:25:52.551Z,74.01
2022-12-11T18:31:13.584Z,74.12
2022-12-11T18:36:34.722Z,74.34
2022-12-11T18:42:30.728Z,74.50
2022-12-11T18:47:37.242Z,74.41
2022-12-11T18:52:58.007Z,74.49
2022-12-11T18:58:19.340Z,74.50
2022-12-11T19:03:40.299Z,74.45
2022-12-11T19:09:01.444Z,74.48
2022-12-11T19:14:22.332Z,74.26
2022-12-11T19:19:46.018Z,74.54
2022-12-11T19:25:07.204Z,74.51
2022-12-11T19:30:28.076Z,74.41
2022-12-11T19:35:48.807Z,74.41
2022-12-11T19:41:15.349Z,74.50
2022-12-11T19:46:35.980Z,74.73
2022-12-11T19:51:56.693Z,75.09
2022-12-11T19:57:17.330Z,74.95
2022-12-11T20:02:37.639Z,74.92
2022-12-11T20:08:27.355Z,74.92
2022-12-11T20:13:45.583Z,75.08
2022-12-11T20:19:06.176Z,75.41
2022-12-11T20:24:26.634Z,75.27
2022-12-11T20:29:47.007Z,75.30
2022-12-11T20:35:08.155Z,75.37
2022-12-11T20:40:29.074Z,75.37
2022-12-11T20:45:50.127Z,75.53
2022-12-11T20:51:12.682Z,75.39
2022-12-11T20:56:33.486Z,75.26
2022-12-11T21:01:54.538Z,75.23
2022-12-11T21:07:14.931Z,75.28
2022-12-11T21:12:38.243Z,75.34
2022-12-11T21:17:59.143Z,75.47
2022-12-11T21:23:19.562Z,75.42
2022-12-11T21:28:40.073Z,75.57
2022-12-11T21:34:00.516Z,75.80
2022-12-11T21:39:21.201Z,75.56
2022-12-11T21:45:37.676Z,75.41
2022-12-11T21:50:23.418Z,75.63
2022-12-11T21:55:43.817Z,75.45
2022-12-11T22:01:06.018Z,75.69
2022-12-11T22:06:27.448Z,75.67
2022-12-11T22:11:48.148Z,75.68
2022-12-11T22:17:08.948Z,75.82
2022-12-11T22:22:29.498Z,75.67
2022-12-11T22:27:50.405Z,75.42
2022-12-11T22:33:12.248Z,75.39
2022-12-11T22:38:33.973Z,76.06
2022-12-11T22:43:55.200Z,75.67
2022-12-11T22:49:15.909Z,75.43
2022-12-11T22:54:40.927Z,75.47
2022-12-11T23:00:02.559Z,75.38
2022-12-11T23:05:23.101Z,75.22
2022-12-11T23:10:44.065Z,75.22
2022-12-11T23:16:04.727Z,74.91
2022-12-11T23:21:27.597Z,75.10
2022-12-11T23:26:48.287Z,75.03
2022-12-11T23:32:08.912Z,74.89
2022-12-11T23:37:29.658Z,74.78
2022-12-11T23:42:49.914Z,75.01
2022-12-11T23:48:13.005Z,75.32
2022-12-11T23:53:33.865Z,75.16
2022-12-11T23:58:54.626Z,75.32
